createdAt,value
2019-06-07T00:01:55.058Z,100294.17
2019-06-07T00:04:59.276Z,100293.06
2019-06-07T00:08:07.819Z,100293.06
2019-06-07T00:11:11.052Z,100277.79
2019-06-07T00:14:16.654Z,100277.64
2019-06-07T00:17:21.280Z,100274.19
2019-06-07T00:20:25.228Z,100277.25
2019-06-07T00:23:29.459Z,100272.92
2019-06-07T00:26:33.781Z,100271.47
2019-06-07T00:29:38.202Z,100281.32
2019-06-07T00:32:42.297Z,100271.48
2019-06-07T00:35:46.278Z,100272.62
2019-06-07T00:38:50.454Z,100271.34
2019-06-07T00:41:54.784Z,100268.36
2019-06-07T00:44:58.875Z,100270.05
2019-06-07T00:48:02.774Z,100256.31
2019-06-07T00:51:07.007Z,100261.74
2019-06-07T00:54:12.408Z,100253.94
2019-06-07T00:57:19.351Z,100257.76
2019-06-07T01:00:25.502Z,100249.94
2019-06-07T01:03:29.015Z,100242.08
2019-06-07T01:06:33.011Z,100245.91
2019-06-07T01:09:37.143Z,100250.23
2019-06-07T01:12:41.143Z,100249.20
2019-06-07T01:15:45.079Z,100244.48
2019-06-07T01:18:51.290Z,100243.61
2019-06-07T01:21:54.821Z,100237.98
2019-06-07T01:24:59.001Z,100243.34
2019-06-07T01:28:03.159Z,100230.59
2019-06-07T01:31:07.341Z,100234.53
2019-06-07T01:34:11.580Z,100233.18
2019-06-07T01:37:16.871Z,100229.19
2019-06-07T01:40:27.746Z,100234.06
2019-06-07T01:43:30.467Z,100236.23
2019-06-07T01:46:33.291Z,100232.08
2019-06-07T01:49:37.458Z,100236.83
2019-06-07T01:52:42.069Z,100237.02
2019-06-07T01:55:46.283Z,100234.44
2019-06-07T01:58:50.322Z,100235.00
2019-06-07T02:01:54.518Z,100226.30
2019-06-07T02:04:58.430Z,100231.58
2019-06-07T02:08:02.606Z,100227.50
2019-06-07T02:11:06.609Z,100221.13
2019-06-07T02:14:10.886Z,100226.77
2019-06-07T02:17:15.317Z,100220.24
2019-06-07T02:20:20.356Z,100230.60
2019-06-07T02:23:29.204Z,100228.66
2019-06-07T02:26:32.527Z,100227.96
2019-06-07T02:29:36.565Z,100217.64
2019-06-07T02:32:41.038Z,100221.75
2019-06-07T02:35:44.894Z,100227.55
2019-06-07T02:38:49.065Z,100224.06
2019-06-07T02:41:53.274Z,100220.16
2019-06-07T02:44:57.521Z,100217.31
2019-06-07T02:48:01.607Z,100225.89
2019-06-07T02:51:05.452Z,100227.41
2019-06-07T02:54:09.620Z,100206.61
2019-06-07T02:57:14.034Z,100223.45
2019-06-07T03:01:06.827Z,100210.91
2019-06-07T03:04:00.322Z,100217.88
2019-06-07T03:07:04.507Z,100216.76
2019-06-07T03:10:10.533Z,100215.09
2019-06-07T03:13:19.886Z,100208.69
2019-06-07T03:16:31.200Z,100214.92
2019-06-07T03:19:39.648Z,100205.52
2019-06-07T03:22:44.009Z,100214.61
2019-06-07T03:25:51.046Z,100217.33
2019-06-07T03:28:55.957Z,100212.70
2019-06-07T03:32:00.092Z,100206.86
2019-06-07T03:35:04.575Z,100205.73
2019-06-07T03:38:08.737Z,100202.38
2019-06-07T03:41:13.032Z,100208.20
2019-06-07T03:44:16.928Z,100204.33
2019-06-07T03:47:21.119Z,100211.58
2019-06-07T03:50:25.231Z,100211.72
2019-06-07T03:53:30.497Z,100209.95
2019-06-07T03:56:36.021Z,100204.53
2019-06-07T03:59:41.581Z,100201.11
2019-06-07T04:02:46.253Z,100203.50
2019-06-07T04:05:50.550Z,100207.91
2019-06-07T04:08:55.243Z,100216.27
2019-06-07T04:11:59.741Z,100211.27
2019-06-07T04:15:18.310Z,100212.21
2019-06-07T04:18:23.349Z,100209.50
2019-06-07T04:21:29.659Z,100209.22
2019-06-07T04:24:34.668Z,100201.88
2019-06-07T04:27:41.098Z,100194.23
2019-06-07T04:30:46.039Z,100206.30
2019-06-07T04:33:50.764Z,100195.52
2019-06-07T04:36:59.467Z,100181.53
2019-06-07T04:40:03.721Z,100177.28
2019-06-07T04:43:08.306Z,100173.46
2019-06-07T04:46:13.166Z,100169.88
2019-06-07T04:49:20.499Z,100155.55
2019-06-07T04:52:27.549Z,100156.69
2019-06-07T04:55:31.542Z,100148.54
2019-06-07T04:58:38.139Z,100150.45
2019-06-07T05:01:42.810Z,100143.91
2019-06-07T05:04:46.728Z,100135.16
2019-06-07T05:07:51.076Z,100132.31
2019-06-07T05:10:54.996Z,100129.64
2019-06-07T05:13:59.161Z,100118.86
2019-06-07T05:17:03.329Z,100119.27
2019-06-07T05:20:07.780Z,100110.73
2019-06-07T05:23:59.400Z,100109.19
2019-06-07T05:26:17.893Z,100116.47
2019-06-07T05:29:21.908Z,100104.04
2019-06-07T05:32:26.529Z,100111.32
2019-06-07T05:35:33.082Z,100106.97
2019-06-07T05:38:42.236Z,100113.08
2019-06-07T05:41:44.411Z,100105.71
2019-06-07T05:44:48.846Z,100112.00
2019-06-07T05:47:53.058Z,100102.84
2019-06-07T05:50:57.890Z,100099.45
2019-06-07T05:54:02.382Z,100097.90
2019-06-07T05:57:06.287Z,100101.09
2019-06-07T06:00:10.285Z,100098.27
2019-06-07T06:03:14.200Z,100087.23
2019-06-07T06:06:18.987Z,100098.83
2019-06-07T06:09:23.336Z,100089.83
2019-06-07T06:12:35.482Z,100085.50
2019-06-07T06:15:46.368Z,100090.63
2019-06-07T06:18:40.549Z,100088.79
2019-06-07T06:21:46.439Z,100079.87
2019-06-07T06:25:29.950Z,100082.36
2019-06-07T06:28:09.861Z,100083.31
2019-06-07T06:31:01.792Z,100075.52
2019-06-07T06:34:06.458Z,100072.48
2019-06-07T06:37:10.664Z,100064.18
2019-06-07T06:40:14.667Z,100057.81
2019-06-07T06:43:18.662Z,100070.70
2019-06-07T06:46:38.243Z,100052.55
2019-06-07T06:49:28.999Z,100050.14
2019-06-07T06:52:32.839Z,100050.52
2019-06-07T06:55:36.788Z,100044.44
2019-06-07T06:59:21.898Z,100046.16
2019-06-07T07:01:49.409Z,100048.21
2019-06-07T07:04:54.030Z,100048.21
2019-06-07T07:07:58.515Z,100051.14
2019-06-07T07:11:03.456Z,100060.70
2019-06-07T07:14:07.632Z,100063.45
2019-06-07T07:17:11.509Z,100057.95
2019-06-07T07:20:15.674Z,100052.27
2019-06-07T07:23:20.148Z,100048.56
2019-06-07T07:26:24.042Z,100043.11
2019-06-07T07:29:28.940Z,100043.05
2019-06-07T07:32:33.141Z,100028.89
2019-06-07T07:35:37.076Z,100021.01
2019-06-07T07:38:41.279Z,100019.05
2019-06-07T07:42:10.970Z,99999.66
2019-06-07T07:44:55.099Z,99996.46
2019-06-07T07:48:13.342Z,100006.61
2019-06-07T07:51:03.640Z,100003.10
2019-06-07T07:54:10.906Z,99991.02
2019-06-07T07:57:13.342Z,99977.70
2019-06-07T08:00:49.614Z,99975.88
2019-06-07T08:03:24.054Z,99975.88
2019-06-07T08:06:28.334Z,99978.10
2019-06-07T08:09:32.240Z,99963.27
2019-06-07T08:12:55.791Z,99964.81
2019-06-07T08:15:42.053Z,99954.29
2019-06-07T08:18:51.043Z,99941.82
2019-06-07T08:21:53.074Z,99941.82
2019-06-07T08:24:59.950Z,99957.66
2019-06-07T08:28:03.251Z,99943.13
2019-06-07T08:31:07.897Z,99930.53
2019-06-07T08:34:12.058Z,99926.05
2019-06-07T08:37:15.968Z,99918.35
2019-06-07T08:40:20.763Z,99916.81
2019-06-07T08:43:25.188Z,99910.66
2019-06-07T08:46:29.110Z,99906.75
2019-06-07T08:49:33.296Z,99901.35
2019-06-07T08:52:38.096Z,99896.94
2019-06-07T08:55:43.165Z,99898.79
2019-06-07T08:58:47.391Z,99880.94
2019-06-07T09:01:53.776Z,99879.82
2019-06-07T09:05:03.158Z,99872.31
2019-06-07T09:08:23.837Z,99856.07
2019-06-07T09:11:11.113Z,99862.30
2019-06-07T09:14:15.108Z,99858.66
2019-06-07T09:17:19.031Z,99849.67
2019-06-07T09:20:36.458Z,99836.17
2019-06-07T09:23:30.009Z,99843.72
2019-06-07T09:26:34.596Z,99841.43
2019-06-07T09:29:39.472Z,99851.88
2019-06-07T09:32:43.554Z,99854.95
2019-06-07T09:35:47.541Z,99848.12
2019-06-07T09:38:51.888Z,99829.30
2019-06-07T09:41:56.515Z,99837.78
2019-06-07T09:45:04.349Z,99829.14
2019-06-07T09:48:13.602Z,99828.34
2019-06-07T09:51:19.933Z,99820.52
2019-06-07T09:57:25.593Z,99809.54
2019-06-07T10:00:41.241Z,99805.66
2019-06-07T10:03:35.422Z,99803.34
2019-06-07T10:06:39.375Z,99810.52
2019-06-07T10:10:25.619Z,99795.34
2019-06-07T10:13:10.224Z,99786.84
2019-06-07T10:16:14.305Z,99777.59
2019-06-07T10:19:18.499Z,99775.13
2019-06-07T10:22:22.427Z,99759.67
2019-06-07T10:25:27.250Z,99753.28
2019-06-07T10:28:31.544Z,99755.44
2019-06-07T10:31:35.767Z,99745.56
2019-06-07T10:34:39.701Z,99735.63
2019-06-07T10:37:43.900Z,99740.20
2019-06-07T10:40:47.980Z,99733.09
2019-06-07T10:43:51.834Z,99729.33
2019-06-07T10:46:59.130Z,99725.75
2019-06-07T10:50:02.236Z,99736.45
2019-06-07T10:53:06.519Z,99724.11
2019-06-07T10:56:11.144Z,99712.76
2019-06-07T10:59:15.030Z,99702.93
2019-06-07T11:02:19.609Z,99706.57
2019-06-07T11:05:24.036Z,99717.80
2019-06-07T11:08:28.580Z,99709.36
2019-06-07T11:11:32.779Z,99708.06
2019-06-07T11:14:36.865Z,99702.83
2019-06-07T11:17:41.115Z,99694.61
2019-06-07T11:20:44.948Z,99694.55
2019-06-07T11:23:48.937Z,99693.52
2019-06-07T11:26:53.036Z,99684.43
2019-06-07T11:29:56.871Z,99677.94
2019-06-07T11:33:00.805Z,99674.94
2019-06-07T11:36:04.890Z,99673.14
2019-06-07T11:39:11.089Z,99665.83
2019-06-07T11:42:15.536Z,99668.48
2019-06-07T11:45:20.043Z,99650.92
2019-06-07T11:48:24.278Z,99652.48
2019-06-07T11:51:28.776Z,99643.17
2019-06-07T11:54:33.404Z,99638.84
2019-06-07T11:57:37.916Z,99642.82
2019-06-07T12:00:42.216Z,99647.54
2019-06-07T12:03:46.377Z,99623.73
2019-06-07T12:06:50.663Z,99609.97
2019-06-07T12:09:56.605Z,99617.23
2019-06-07T12:13:01.693Z,99595.45
2019-06-07T12:16:06.632Z,99593.73
2019-06-07T12:19:11.944Z,99586.50
2019-06-07T12:22:16.136Z,99584.41
2019-06-07T12:25:24.826Z,99576.81
2019-06-07T12:28:26.790Z,99573.34
2019-06-07T12:31:31.670Z,99567.45
2019-06-07T12:34:36.392Z,99570.23
2019-06-07T12:37:44.366Z,99577.13
2019-06-07T12:40:57.330Z,99559.66
2019-06-07T12:43:51.849Z,99564.81
2019-06-07T12:46:56.104Z,99550.60
2019-06-07T12:50:00.324Z,99552.44
2019-06-07T12:53:05.141Z,99552.44
2019-06-07T12:56:09.002Z,99541.88
2019-06-07T12:59:13.914Z,99544.27
2019-06-07T13:02:20.029Z,99535.95
2019-06-07T13:05:24.501Z,99534.73
2019-06-07T13:08:28.725Z,99527.47
2019-06-07T13:11:32.842Z,99513.92
2019-06-07T13:14:36.680Z,99507.98
2019-06-07T13:17:40.582Z,99501.64
2019-06-07T13:20:45.119Z,99504.12
2019-06-07T13:23:49.754Z,99498.81
2019-06-07T13:26:53.899Z,99502.62
2019-06-07T13:29:57.763Z,99494.70
2019-06-07T13:33:01.849Z,99497.02
2019-06-07T13:36:05.867Z,99482.41
2019-06-07T13:39:10.308Z,99483.06
2019-06-07T13:42:14.532Z,99481.27
2019-06-07T13:45:20.011Z,99469.73
2019-06-07T13:48:25.243Z,99469.20
2019-06-07T13:51:29.191Z,99462.80
2019-06-07T13:54:33.784Z,99470.58
2019-06-07T13:57:37.987Z,99460.98
2019-06-07T14:00:41.828Z,99454.57
2019-06-07T14:03:46.228Z,99463.02
2019-06-07T14:06:50.594Z,99455.28
2019-06-07T14:09:54.745Z,99456.41
2019-06-07T14:12:58.836Z,99451.63
2019-06-07T14:16:02.975Z,99439.73
2019-06-07T14:19:07.415Z,99445.29
2019-06-07T14:22:11.546Z,99433.20
2019-06-07T14:25:17.379Z,99426.78
2019-06-07T14:28:24.579Z,99420.37
2019-06-07T14:31:28.169Z,99422.65
2019-06-07T14:34:33.105Z,99411.83
2019-06-07T14:37:37.120Z,99410.23
2019-06-07T14:40:41.084Z,99403.62
2019-06-07T14:43:45.029Z,99392.56
2019-06-07T14:46:49.917Z,99381.44
2019-06-07T14:49:53.793Z,99374.64
2019-06-07T14:52:58.088Z,99362.71
2019-06-07T14:56:03.111Z,99347.17
2019-06-07T14:59:07.445Z,99352.51
2019-06-07T15:02:11.604Z,99340.47
2019-06-07T15:05:15.960Z,99364.97
2019-06-07T15:08:19.933Z,99372.30
2019-06-07T15:11:24.094Z,99375.55
2019-06-07T15:14:29.339Z,99373.61
2019-06-07T15:17:33.814Z,99371.05
2019-06-07T15:20:38.920Z,99360.92
2019-06-07T15:23:43.528Z,99347.36
2019-06-07T15:26:47.781Z,99362.77
2019-06-07T15:29:51.974Z,99371.13
2019-06-07T15:32:58.920Z,99376.70
2019-06-07T15:36:01.769Z,99373.00
2019-06-07T15:39:07.555Z,99344.45
2019-06-07T15:42:11.821Z,99325.01
2019-06-07T15:45:16.457Z,99347.60
2019-06-07T15:48:20.381Z,99355.95
2019-06-07T15:51:24.893Z,99356.73
2019-06-07T15:54:28.744Z,99358.38
2019-06-07T15:57:33.357Z,99365.11
2019-06-07T16:00:37.662Z,99368.41
2019-06-07T16:03:42.156Z,99386.44
2019-06-07T16:06:46.710Z,99387.10
2019-06-07T16:09:51.237Z,99388.66
2019-06-07T16:13:00.491Z,99365.37
2019-06-07T16:16:00.739Z,99367.13
2019-06-07T16:19:04.729Z,99346.57
2019-06-07T16:22:08.726Z,99363.45
2019-06-07T16:25:13.185Z,99383.09
2019-06-07T16:28:17.267Z,99401.84
2019-06-07T16:31:21.429Z,99404.17
2019-06-07T16:34:25.517Z,99411.98
2019-06-07T16:37:29.996Z,99401.03
2019-06-07T16:40:34.463Z,99404.66
2019-06-07T16:43:38.661Z,99392.82
2019-06-07T16:46:42.990Z,99394.28
2019-06-07T16:49:47.063Z,99395.25
2019-06-07T16:52:51.289Z,99411.63
2019-06-07T16:55:55.257Z,99429.41
2019-06-07T16:58:59.368Z,99423.64
2019-06-07T17:02:03.403Z,99424.41
2019-06-07T17:05:08.783Z,99432.02
2019-06-07T17:08:12.961Z,99444.09
2019-06-07T17:11:17.285Z,99458.03
2019-06-07T17:14:21.439Z,99469.41
2019-06-07T17:17:25.927Z,99471.72
2019-06-07T17:20:30.088Z,99470.62
2019-06-07T17:23:34.035Z,99472.27
2019-06-07T17:26:39.418Z,99479.23
2019-06-07T17:29:45.810Z,99485.07
2019-06-07T17:32:57.620Z,99513.43
2019-06-07T17:35:56.181Z,99518.36
2019-06-07T17:39:00.280Z,99525.61
2019-06-07T17:42:04.817Z,99545.73
2019-06-07T17:45:10.054Z,99570.97
2019-06-07T17:48:14.082Z,99583.45
2019-06-07T17:51:17.999Z,99590.28
2019-06-07T17:54:22.221Z,99601.01
2019-06-07T17:57:26.426Z,99620.77
2019-06-07T18:00:47.530Z,99664.80
2019-06-07T18:03:53.224Z,99712.63
2019-06-07T18:06:57.892Z,99752.06
2019-06-07T18:10:03.153Z,99770.50
2019-06-07T18:13:07.503Z,99811.75
2019-06-07T18:16:11.647Z,99804.83
2019-06-07T18:19:15.567Z,99808.75
2019-06-07T18:22:19.854Z,99840.27
2019-06-07T18:25:24.170Z,99875.75
2019-06-07T18:28:28.258Z,99901.73
2019-06-07T18:31:32.701Z,99917.53
2019-06-07T18:34:37.051Z,99975.96
2019-06-07T18:37:40.888Z,99986.92
2019-06-07T18:40:45.054Z,99963.34
2019-06-07T18:43:49.268Z,99961.67
2019-06-07T18:46:54.397Z,99972.22
2019-06-07T18:49:58.919Z,100004.66
2019-06-07T18:53:02.808Z,100028.13
2019-06-07T18:56:07.118Z,100028.64
2019-06-07T18:59:10.958Z,100028.02
2019-06-07T19:02:15.188Z,100009.59
2019-06-07T19:05:20.270Z,100007.20
2019-06-07T19:08:24.318Z,100029.34
2019-06-07T19:11:28.526Z,100002.23
2019-06-07T19:14:36.981Z,100008.34
2019-06-07T19:17:38.596Z,100060.27
2019-06-07T19:20:42.901Z,100094.79
2019-06-07T19:23:46.851Z,100068.52
2019-06-07T19:26:52.505Z,100143.70
2019-06-07T19:29:56.863Z,100171.17
2019-06-07T19:33:01.526Z,100242.73
2019-06-07T19:36:05.829Z,100220.61
2019-06-07T19:39:09.828Z,100219.08
2019-06-07T19:42:13.989Z,100219.08
2019-06-07T19:45:30.152Z,100222.53
2019-06-07T19:48:24.469Z,100251.19
2019-06-07T19:51:28.396Z,100241.63
2019-06-07T19:54:32.387Z,100227.15
2019-06-07T19:57:36.611Z,100219.53
2019-06-07T20:00:40.484Z,100185.25
2019-06-07T20:03:44.465Z,100185.25
2019-06-07T20:06:48.970Z,100213.38
2019-06-07T20:09:54.393Z,100221.28
2019-06-07T20:12:58.773Z,100208.33
2019-06-07T20:16:03.112Z,100218.77
2019-06-07T20:19:09.057Z,100229.92
2019-06-07T20:22:13.065Z,100214.67
2019-06-07T20:25:17.752Z,100211.36
2019-06-07T20:28:21.765Z,100211.53
2019-06-07T20:31:26.011Z,100213.87
2019-06-07T20:34:30.120Z,100215.62
2019-06-07T20:37:34.184Z,100215.05
2019-06-07T20:40:38.108Z,100212.41
2019-06-07T20:43:41.970Z,100209.61
2019-06-07T20:46:46.137Z,100215.13
2019-06-07T20:49:49.993Z,100213.88
2019-06-07T20:52:54.155Z,100230.47
2019-06-07T20:55:58.530Z,100243.32
2019-06-07T20:59:02.852Z,100250.77
2019-06-07T21:02:07.293Z,100252.62
2019-06-07T21:05:11.231Z,100306.28
2019-06-07T21:08:15.220Z,100310.67
2019-06-07T21:11:19.383Z,100295.86
2019-06-07T21:14:23.559Z,100289.44
2019-06-07T21:17:27.824Z,100319.25
2019-06-07T21:20:34.038Z,100286.02
2019-06-07T21:23:38.086Z,100270.36
2019-06-07T21:26:42.301Z,100267.40
2019-06-07T21:29:46.241Z,100286.45
2019-06-07T21:32:50.428Z,100296.09
2019-06-07T21:35:54.640Z,100280.42
2019-06-07T21:38:58.904Z,100277.55
2019-06-07T21:42:04.226Z,100285.89
2019-06-07T21:45:09.820Z,100303.23
2019-06-07T21:48:14.548Z,100305.83
2019-06-07T21:51:18.440Z,100302.06
2019-06-07T21:54:22.625Z,100293.42
2019-06-07T21:57:26.816Z,100273.21
2019-06-07T22:01:18.208Z,100276.91
2019-06-07T22:04:22.105Z,100269.61
2019-06-07T22:07:26.561Z,100249.34
2019-06-07T22:10:30.655Z,100269.11
2019-06-07T22:13:34.504Z,100273.39
2019-06-07T22:16:38.603Z,100268.32
2019-06-07T22:19:42.709Z,100279.77
2019-06-07T22:22:47.198Z,100262.42
2019-06-07T22:25:51.436Z,100265.91
2019-06-07T22:28:55.739Z,100247.51
2019-06-07T22:32:00.266Z,100265.64
2019-06-07T22:35:04.693Z,100341.47
2019-06-07T22:38:10.205Z,100367.88
2019-06-07T22:41:15.726Z,100392.02
2019-06-07T22:44:20.094Z,100378.33
2019-06-07T22:47:24.256Z,100369.55
2019-06-07T22:50:28.346Z,100366.91
2019-06-07T22:53:32.221Z,100388.34
2019-06-07T22:56:41.204Z,100399.97
2019-06-07T22:59:45.043Z,100388.00
2019-06-07T23:02:48.916Z,100360.59
2019-06-07T23:05:53.236Z,100356.38
2019-06-07T23:08:57.635Z,100352.34
2019-06-07T23:12:01.489Z,100378.05
2019-06-07T23:15:05.724Z,100393.86
2019-06-07T23:18:09.585Z,100390.80
2019-06-07T23:21:13.821Z,100382.64
2019-06-07T23:24:20.126Z,100388.97
2019-06-07T23:27:23.840Z,100393.81
2019-06-07T23:30:28.196Z,100410.47
2019-06-07T23:33:32.362Z,100409.66
2019-06-07T23:36:36.840Z,100411.34
2019-06-07T23:39:41.102Z,100422.39
2019-06-07T23:42:45.464Z,100417.99
2019-06-07T23:45:49.709Z,100386.41
2019-06-07T23:48:53.983Z,100378.16
2019-06-07T23:51:58.353Z,100382.80
2019-06-07T23:55:02.729Z,100380.44
2019-06-07T23:58:06.906Z,100381.39
